KHFF/HFF METAR and TAF weather

Enter ICAO airport designator
Station Type Date Time Source
KHFF METAR 2023/02/06 19:55 UTC NOAA

KHFF 061955Z AUTO 03006KT 10SM CLR 18/M01 A3008 RMK AO2 SLPNO T01751007


Station Type Date Time Source
KHFF Decoded METAR 2023/02/06 19:55 UTC NOAA

Mackall U. S. Army Airfield, NC, United States (KHFF) 35-02N 079-30W
Feb 06, 2023 - 02:55 PM EST / 2023.02.06 1955 UTC
Wind: from the NNE (030 degrees) at 7 MPH (6 KT):0
Visibility: 10 mile(s):0
Sky conditions: clear
Temperature: 63.5 F (17.5 C)
Dew Point: 30.7 F (-0.7 C)
Relative Humidity: 29%
Pressure (altimeter): 30.08 in. Hg (1018 hPa)
ob: KHFF 061955Z AUTO 03006KT 10SM CLR 18/M01 A3008 RMK AO2 SLPNO T01751007
cycle: 20

Station Type Date Time Source
KHFF TAF UTC NOAA

Error!

Example: see airport list